createdAt,value
2023-04-26T00:00:45.294Z,4.95
2023-04-26T00:05:46.857Z,3.42
2023-04-26T00:10:48.369Z,2.45
2023-04-26T00:15:50.044Z,3.28
2023-04-26T00:20:51.628Z,2.92
2023-04-26T00:25:53.158Z,2.28
2023-04-26T00:30:54.764Z,2.50
2023-04-26T00:35:56.368Z,2.10
2023-04-26T00:40:57.991Z,2.17
2023-04-26T00:45:59.640Z,2.15
2023-04-26T00:51:01.423Z,2.38
2023-04-26T00:56:03.486Z,2.72
2023-04-26T01:01:05.144Z,3.13
2023-04-26T01:06:07.133Z,2.90
2023-04-26T01:11:12.001Z,3.03
2023-04-26T01:16:15.144Z,2.95
2023-04-26T01:21:23.877Z,2.58
2023-04-26T01:26:25.869Z,3.25
2023-04-26T01:31:29.052Z,2.30
2023-04-26T01:36:30.748Z,3.05
2023-04-26T01:41:34.004Z,3.08
2023-04-26T01:46:35.826Z,2.45
2023-04-26T01:51:37.732Z,3.80
2023-04-26T01:56:42.061Z,2.78
2023-04-26T02:01:43.633Z,2.88
2023-04-26T02:06:45.793Z,2.65
2023-04-26T02:11:47.671Z,3.00
2023-04-26T02:16:49.702Z,2.58
2023-04-26T02:21:56.465Z,3.08
2023-04-26T02:31:59.708Z,2.72
2023-04-26T02:37:01.955Z,3.53
2023-04-26T02:42:03.775Z,3.80
2023-04-26T02:47:05.689Z,3.90
2023-04-26T02:52:07.592Z,4.32
2023-04-26T02:57:09.891Z,6.43
2023-04-26T03:02:11.524Z,4.47
2023-04-26T03:07:13.476Z,5.30
2023-04-26T03:12:14.986Z,4.72
2023-04-26T03:17:16.640Z,5.68
2023-04-26T03:22:18.623Z,5.05
2023-04-26T03:27:20.361Z,5.28
2023-04-26T03:32:22.318Z,5.10
2023-04-26T03:37:24.662Z,5.32
2023-04-26T03:42:33.686Z,5.68
2023-04-26T03:47:35.401Z,5.18
2023-04-26T03:52:37.756Z,5.72
2023-04-26T03:57:40.286Z,5.47
2023-04-26T04:02:43.025Z,5.03
2023-04-26T04:07:48.440Z,6.03
2023-04-26T04:12:51.354Z,5.47
2023-04-26T04:17:53.410Z,5.18
2023-04-26T04:22:56.487Z,6.22
2023-04-26T04:27:58.198Z,4.90
2023-04-26T04:33:00.066Z,5.35
2023-04-26T04:38:01.689Z,6.28
2023-04-26T04:43:04.426Z,5.95
2023-04-26T04:48:07.939Z,6.68
2023-04-26T04:53:11.119Z,7.55
2023-04-26T04:58:12.837Z,6.82
2023-04-26T05:03:15.218Z,7.95
2023-04-26T05:08:17.555Z,8.35
2023-04-26T05:13:19.471Z,8.07
2023-04-26T05:18:21.430Z,6.68
2023-04-26T05:23:23.927Z,6.15
2023-04-26T05:28:25.995Z,4.10
2023-04-26T05:33:56.805Z,3.53
2023-04-26T05:39:04.628Z,3.72
2023-04-26T05:44:07.064Z,4.05
2023-04-26T05:49:09.125Z,3.97
2023-04-26T05:54:10.863Z,3.60
2023-04-26T05:59:13.300Z,3.80
2023-04-26T06:04:15.554Z,3.40
2023-04-26T06:09:33.031Z,4.20
2023-04-26T06:14:34.806Z,3.90
2023-04-26T06:24:42.978Z,4.63
2023-04-26T06:29:44.872Z,4.50
2023-04-26T06:34:46.969Z,4.05
2023-04-26T06:39:48.753Z,4.55
2023-04-26T06:44:50.995Z,4.78
2023-04-26T06:49:52.648Z,5.40
2023-04-26T06:54:57.634Z,5.05
2023-04-26T06:59:59.743Z,4.65
2023-04-26T07:05:01.922Z,4.93
2023-04-26T07:10:04.174Z,4.70
2023-04-26T07:15:06.602Z,5.25
2023-04-26T07:20:08.844Z,5.00
2023-04-26T07:25:10.333Z,5.03
2023-04-26T07:30:12.018Z,5.47
2023-04-26T07:35:13.532Z,5.30
2023-04-26T07:40:15.629Z,5.03
2023-04-26T07:45:17.235Z,4.10
2023-04-26T07:50:19.042Z,4.20
2023-04-26T07:55:21.504Z,4.45
2023-04-26T08:00:23.991Z,5.57
2023-04-26T08:05:26.751Z,5.20
2023-04-26T08:10:28.492Z,4.68
2023-04-26T08:15:30.342Z,4.50
2023-04-26T08:20:32.818Z,5.07
2023-04-26T08:25:34.814Z,5.25
2023-04-26T08:30:36.770Z,5.38
2023-04-26T08:35:38.405Z,5.68
2023-04-26T08:40:43.254Z,5.80
2023-04-26T08:45:46.527Z,3.50
2023-04-26T08:50:48.441Z,4.25
2023-04-26T08:55:50.970Z,4.75
2023-04-26T09:00:52.908Z,3.33
2023-04-26T09:05:55.311Z,3.40
2023-04-26T09:11:01.041Z,3.03
2023-04-26T09:16:04.761Z,4.83
2023-04-26T09:21:08.936Z,5.20
2023-04-26T09:26:17.734Z,4.88
2023-04-26T09:31:43.051Z,4.25
2023-04-26T09:36:52.728Z,4.45
2023-04-26T09:41:54.531Z,5.22
2023-04-26T09:47:10.947Z,3.90
2023-04-26T09:57:15.971Z,4.32
2023-04-26T10:02:26.015Z,3.60
2023-04-26T10:07:30.285Z,2.58
2023-04-26T10:12:31.882Z,3.10
2023-04-26T10:17:33.553Z,3.63
2023-04-26T10:22:40.569Z,3.08
2023-04-26T10:27:45.285Z,3.20
2023-04-26T10:32:52.861Z,2.80
2023-04-26T10:38:01.149Z,3.67
2023-04-26T10:43:08.696Z,3.22
2023-04-26T10:48:23.770Z,3.20
2023-04-26T10:53:25.881Z,2.45
2023-04-26T10:58:34.213Z,3.25
2023-04-26T11:03:36.199Z,3.00
2023-04-26T11:08:38.261Z,3.03
2023-04-26T11:13:44.062Z,2.30
2023-04-26T11:18:47.302Z,2.67
2023-04-26T11:23:55.481Z,2.85
2023-04-26T11:28:57.091Z,3.83
2023-04-26T11:34:04.729Z,2.75
2023-04-26T11:39:06.971Z,2.88
2023-04-26T11:44:11.502Z,2.08
2023-04-26T11:49:13.802Z,3.95
2023-04-26T11:54:36.132Z,2.70
2023-04-26T11:59:37.922Z,4.05
2023-04-26T12:04:40.832Z,3.10
2023-04-26T12:09:42.809Z,3.30
2023-04-26T12:14:47.119Z,4.05
2023-04-26T12:19:50.032Z,3.05
2023-04-26T12:25:04.481Z,3.00
2023-04-26T12:30:07.009Z,4.03
2023-04-26T12:35:09.146Z,2.88
2023-04-26T12:40:11.714Z,2.60
2023-04-26T12:45:13.577Z,3.15
2023-04-26T12:50:17.970Z,2.35
2023-04-26T12:55:20.799Z,3.33
2023-04-26T13:00:22.859Z,2.72
2023-04-26T13:05:27.196Z,3.35
2023-04-26T13:10:28.869Z,2.80
2023-04-26T13:15:30.773Z,4.20
2023-04-26T13:20:32.575Z,2.72
2023-04-26T13:25:34.428Z,3.67
2023-04-26T13:30:36.057Z,2.67
2023-04-26T13:35:37.947Z,2.63
2023-04-26T13:40:39.770Z,2.38
2023-04-26T13:45:41.325Z,2.80
2023-04-26T13:50:42.856Z,2.95
2023-04-26T13:55:44.394Z,3.15
2023-04-26T14:00:45.982Z,2.70
2023-04-26T14:05:47.548Z,3.10
2023-04-26T14:10:49.160Z,3.45
2023-04-26T14:15:50.858Z,3.20
2023-04-26T14:20:53.536Z,2.78
2023-04-26T14:25:55.167Z,2.65
2023-04-26T14:30:59.641Z,3.42
2023-04-26T14:36:01.384Z,3.08
2023-04-26T14:41:03.183Z,2.90
2023-04-26T14:46:05.801Z,3.35
2023-04-26T14:51:07.350Z,4.32
2023-04-26T14:56:09.069Z,3.10
2023-04-26T15:01:10.927Z,2.97
2023-04-26T15:06:12.936Z,3.38
2023-04-26T15:11:14.838Z,3.13
2023-04-26T15:16:17.860Z,2.72
2023-04-26T15:21:19.659Z,3.13
2023-04-26T15:26:21.540Z,3.20
2023-04-26T15:31:23.268Z,3.45
2023-04-26T15:36:25.375Z,3.05
2023-04-26T15:41:27.166Z,2.67
2023-04-26T15:46:28.751Z,2.53
2023-04-26T15:51:30.492Z,2.80
2023-04-26T15:56:32.096Z,2.47
2023-04-26T16:01:33.774Z,2.83
2023-04-26T16:06:35.570Z,2.95
2023-04-26T16:11:37.295Z,2.85
2023-04-26T16:16:40.150Z,2.25
2023-04-26T16:21:41.929Z,3.22
2023-04-26T16:26:43.676Z,3.25
2023-04-26T16:31:45.458Z,2.47
2023-04-26T16:36:47.195Z,2.72
2023-04-26T16:41:49.007Z,2.92
2023-04-26T16:46:50.985Z,2.38
2023-04-26T16:51:52.509Z,2.50
2023-04-26T16:56:54.269Z,2.38
2023-04-26T17:01:55.862Z,2.47
2023-04-26T17:06:57.418Z,2.38
2023-04-26T17:11:59.070Z,3.30
2023-04-26T17:17:00.763Z,3.35
2023-04-26T17:22:02.441Z,3.60
2023-04-26T17:27:03.977Z,2.92
2023-04-26T17:32:05.758Z,3.35
2023-04-26T17:37:07.528Z,2.00
2023-04-26T17:42:09.025Z,2.55
2023-04-26T17:47:10.594Z,2.42
2023-04-26T17:52:12.121Z,2.05
2023-04-26T17:57:13.748Z,1.70
2023-04-26T18:02:15.321Z,3.30
2023-04-26T18:07:16.868Z,2.78
2023-04-26T18:12:18.429Z,2.70
2023-04-26T18:17:21.090Z,2.83
2023-04-26T18:22:22.783Z,2.80
2023-04-26T18:27:24.363Z,3.00
2023-04-26T18:32:26.052Z,2.50
2023-04-26T18:37:27.872Z,2.85
2023-04-26T18:42:32.285Z,2.38
2023-04-26T18:47:33.920Z,2.42
2023-04-26T18:52:35.472Z,3.03
2023-04-26T18:57:37.028Z,3.40
2023-04-26T19:02:38.767Z,2.85
2023-04-26T19:07:40.367Z,2.15
2023-04-26T19:12:41.886Z,2.10
2023-04-26T19:17:43.440Z,2.40
2023-04-26T19:22:45.301Z,2.65
2023-04-26T19:27:47.290Z,2.25
2023-04-26T19:32:48.868Z,2.33
2023-04-26T19:37:50.865Z,2.47
2023-04-26T19:42:52.395Z,2.85
2023-04-26T19:47:53.925Z,2.30
2023-04-26T19:52:55.569Z,2.60
2023-04-26T19:57:57.174Z,2.90
2023-04-26T20:02:58.938Z,3.17
2023-04-26T20:08:01.946Z,2.55
2023-04-26T20:13:04.010Z,3.67
2023-04-26T20:18:06.202Z,3.75
2023-04-26T20:23:07.779Z,2.97
2023-04-26T20:28:09.464Z,3.42
2023-04-26T20:33:11.084Z,3.50
2023-04-26T20:38:12.698Z,2.95
2023-04-26T20:43:14.699Z,3.15
2023-04-26T20:48:16.230Z,2.55
2023-04-26T20:53:17.757Z,2.78
2023-04-26T20:58:19.522Z,2.72
2023-04-26T21:03:21.956Z,2.90
2023-04-26T21:08:23.729Z,3.28
2023-04-26T21:13:25.232Z,2.83
2023-04-26T21:18:26.838Z,2.45
2023-04-26T21:23:28.427Z,2.40
2023-04-26T21:28:30.044Z,3.00
2023-04-26T21:33:32.444Z,2.65
2023-04-26T21:38:34.102Z,2.92
2023-04-26T21:43:35.640Z,2.75
2023-04-26T21:48:37.180Z,3.03
2023-04-26T21:53:38.700Z,2.85
2023-04-26T21:58:41.034Z,3.58
2023-04-26T22:03:42.965Z,3.55
2023-04-26T22:08:44.625Z,3.55
2023-04-26T22:13:46.230Z,2.58
2023-04-26T22:18:47.732Z,3.25
2023-04-26T22:23:49.369Z,2.63
2023-04-26T22:28:50.854Z,2.55
2023-04-26T22:33:52.386Z,2.90
2023-04-26T22:38:53.911Z,2.67
2023-04-26T22:43:55.543Z,2.65
2023-04-26T22:48:57.395Z,3.40
2023-04-26T22:53:58.937Z,3.03
2023-04-26T22:59:01.989Z,3.08
2023-04-26T23:04:03.719Z,3.20
2023-04-26T23:09:05.532Z,2.47
2023-04-26T23:14:07.421Z,2.75
2023-04-26T23:19:08.990Z,3.00
2023-04-26T23:24:10.533Z,2.67
2023-04-26T23:29:12.370Z,3.00
2023-04-26T23:34:14.176Z,3.13
2023-04-26T23:39:15.922Z,2.40
2023-04-26T23:44:17.554Z,3.08
2023-04-26T23:49:19.231Z,3.10
2023-04-26T23:54:20.957Z,3.08
2023-04-26T23:59:22.772Z,3.58
